createdAt,value
2023-05-25T00:01:49.292Z,9.50
2023-05-25T00:04:19.520Z,9.07
2023-05-25T00:06:47.480Z,8.77
2023-05-25T00:09:14.949Z,10.67
2023-05-25T00:11:42.214Z,9.33
2023-05-25T00:14:09.614Z,10.20
2023-05-25T00:16:38.009Z,11.40
2023-05-25T00:19:06.641Z,11.03
2023-05-25T00:21:38.243Z,10.80
2023-05-25T00:24:06.443Z,11.43
2023-05-25T00:26:34.754Z,10.57
2023-05-25T00:29:02.702Z,10.80
2023-05-25T00:31:32.558Z,10.83
2023-05-25T00:34:00.641Z,9.60
2023-05-25T00:36:28.456Z,11.67
2023-05-25T00:38:55.910Z,9.80
2023-05-25T00:41:25.996Z,11.00
2023-05-25T00:43:53.294Z,10.47
2023-05-25T00:46:21.022Z,10.60
2023-05-25T00:48:48.456Z,10.53
2023-05-25T00:51:16.876Z,10.10
2023-05-25T00:53:44.227Z,11.47
2023-05-25T00:56:20.667Z,11.17
2023-05-25T00:58:53.141Z,10.50
2023-05-25T01:01:22.081Z,10.70
2023-05-25T01:03:53.775Z,10.50
2023-05-25T01:06:22.855Z,12.10
2023-05-25T01:08:53.961Z,11.23
2023-05-25T01:11:28.105Z,10.10
2023-05-25T01:13:56.863Z,10.47
2023-05-25T01:16:25.984Z,9.80
2023-05-25T01:18:54.431Z,10.10
2023-05-25T01:22:01.323Z,9.60
2023-05-25T01:24:34.468Z,10.47
2023-05-25T01:27:30.375Z,9.47
2023-05-25T01:29:59.688Z,10.37
2023-05-25T01:32:28.747Z,9.67
2023-05-25T01:34:57.795Z,10.00
2023-05-25T01:37:27.141Z,9.90
2023-05-25T01:39:54.929Z,10.23
2023-05-25T01:42:22.169Z,11.73
2023-05-25T01:44:49.598Z,10.10
2023-05-25T01:47:42.191Z,10.10
2023-05-25T01:50:22.732Z,9.50
2023-05-25T01:53:04.778Z,10.17
2023-05-25T01:55:42.506Z,10.00
2023-05-25T01:58:13.257Z,9.70
2023-05-25T02:00:41.712Z,10.50
2023-05-25T02:03:10.121Z,9.73
2023-05-25T02:05:38.522Z,9.70
2023-05-25T02:08:06.559Z,9.63
2023-05-25T02:10:33.793Z,11.00
2023-05-25T02:13:01.037Z,10.57
2023-05-25T02:15:33.829Z,10.40
2023-05-25T02:18:01.581Z,11.10
2023-05-25T02:20:31.420Z,10.97
2023-05-25T02:22:58.976Z,12.10
2023-05-25T02:25:26.192Z,11.33
2023-05-25T02:27:53.504Z,10.60
2023-05-25T02:30:21.100Z,11.67
2023-05-25T02:32:48.848Z,11.90
2023-05-25T02:35:16.596Z,11.77
2023-05-25T02:37:43.883Z,11.37
2023-05-25T02:40:11.756Z,12.10
2023-05-25T02:42:38.954Z,11.00
2023-05-25T02:45:10.483Z,9.77
2023-05-25T02:47:39.620Z,11.63
2023-05-25T02:50:07.178Z,11.40
2023-05-25T02:52:39.808Z,11.07
2023-05-25T02:55:10.049Z,11.77
2023-05-25T02:57:38.895Z,10.60
2023-05-25T03:00:08.392Z,13.17
2023-05-25T03:02:36.420Z,12.30
2023-05-25T03:05:04.730Z,12.40
2023-05-25T03:07:33.582Z,14.20
2023-05-25T03:10:00.925Z,13.80
2023-05-25T03:12:28.231Z,13.73
2023-05-25T03:14:55.622Z,14.20
2023-05-25T03:17:23.268Z,15.90
2023-05-25T03:19:51.380Z,16.17
2023-05-25T03:22:18.721Z,15.30
2023-05-25T03:24:49.371Z,17.13
2023-05-25T03:27:16.726Z,17.50
2023-05-25T03:29:43.958Z,16.77
2023-05-25T03:32:11.211Z,18.07
2023-05-25T03:34:40.335Z,17.60
2023-05-25T03:37:08.963Z,18.30
2023-05-25T03:39:36.438Z,18.67
2023-05-25T03:42:03.821Z,18.70
2023-05-25T03:44:31.243Z,19.50
2023-05-25T03:46:58.685Z,19.27
2023-05-25T03:49:26.019Z,19.33
2023-05-25T03:51:53.251Z,18.30
2023-05-25T03:54:21.079Z,18.97
2023-05-25T03:56:48.998Z,19.77
2023-05-25T03:59:16.275Z,19.10
2023-05-25T04:01:43.495Z,18.43
2023-05-25T04:04:10.837Z,18.17
2023-05-25T04:06:38.305Z,19.47
2023-05-25T04:09:07.652Z,19.70
2023-05-25T04:11:35.378Z,18.40
2023-05-25T04:14:02.872Z,18.00
2023-05-25T04:16:33.599Z,16.93
2023-05-25T04:19:01.766Z,17.33
2023-05-25T04:21:29.132Z,15.40
2023-05-25T04:23:56.423Z,14.57
2023-05-25T04:26:26.298Z,14.63
2023-05-25T04:28:55.764Z,13.87
2023-05-25T04:31:47.191Z,12.30
2023-05-25T04:34:15.040Z,9.70
2023-05-25T04:36:50.554Z,8.73
2023-05-25T04:39:18.605Z,8.87
2023-05-25T04:41:52.914Z,8.23
2023-05-25T04:44:20.632Z,7.30
2023-05-25T04:46:50.941Z,6.63
2023-05-25T04:49:24.889Z,6.63
2023-05-25T04:51:52.373Z,6.80
2023-05-25T04:54:19.967Z,7.20
2023-05-25T04:56:47.611Z,7.40
2023-05-25T04:59:15.548Z,6.67
2023-05-25T05:01:44.914Z,5.87
2023-05-25T05:04:16.277Z,6.00
2023-05-25T05:06:44.248Z,6.27
2023-05-25T05:09:17.498Z,6.23
2023-05-25T05:11:44.873Z,5.93
2023-05-25T05:14:13.022Z,5.60
2023-05-25T05:16:43.204Z,5.00
2023-05-25T05:19:10.836Z,5.33
2023-05-25T05:21:39.066Z,4.13
2023-05-25T05:24:07.989Z,5.93
2023-05-25T05:26:51.937Z,4.13
2023-05-25T05:29:24.706Z,5.17
2023-05-25T05:31:52.772Z,3.83
2023-05-25T05:34:21.194Z,4.13
2023-05-25T05:36:57.305Z,4.40
2023-05-25T05:39:27.609Z,4.57
2023-05-25T05:41:55.486Z,4.37
2023-05-25T05:44:24.755Z,4.77
2023-05-25T05:47:00.523Z,3.70
2023-05-25T05:49:29.993Z,5.00
2023-05-25T05:51:59.225Z,3.93
2023-05-25T05:54:27.835Z,3.80
2023-05-25T05:56:55.975Z,4.13
2023-05-25T05:59:23.891Z,4.40
2023-05-25T06:01:51.206Z,4.40
2023-05-25T06:04:19.190Z,3.93
2023-05-25T06:06:46.887Z,4.93
2023-05-25T06:09:14.756Z,3.80
2023-05-25T06:11:42.056Z,4.13
2023-05-25T06:14:11.302Z,4.00
2023-05-25T06:16:38.593Z,3.63
2023-05-25T06:19:05.915Z,3.60
2023-05-25T06:21:33.190Z,5.40
2023-05-25T06:24:00.663Z,4.50
2023-05-25T06:26:28.439Z,4.03
2023-05-25T06:28:57.977Z,3.93
2023-05-25T06:31:25.545Z,4.03
2023-05-25T06:33:52.897Z,4.33
2023-05-25T06:36:20.715Z,3.40
2023-05-25T06:38:48.754Z,4.10
2023-05-25T06:41:16.632Z,3.80
2023-05-25T06:43:43.926Z,3.80
2023-05-25T06:46:32.817Z,3.40
2023-05-25T06:49:01.367Z,2.97
2023-05-25T06:51:28.797Z,3.40
2023-05-25T06:53:56.246Z,3.43
2023-05-25T06:56:23.951Z,3.57
2023-05-25T06:58:51.212Z,4.20
2023-05-25T07:01:18.446Z,3.80
2023-05-25T07:03:46.110Z,4.20
2023-05-25T07:06:13.683Z,3.70
2023-05-25T07:08:40.898Z,3.57
2023-05-25T07:11:10.563Z,3.67
2023-05-25T07:13:37.810Z,3.80
2023-05-25T07:16:05.283Z,3.40
2023-05-25T07:18:32.608Z,3.60
2023-05-25T07:21:00.496Z,4.03
2023-05-25T07:23:27.698Z,4.10
2023-05-25T07:25:54.900Z,3.80
2023-05-25T07:28:22.229Z,3.60
2023-05-25T07:30:49.967Z,3.80
2023-05-25T07:33:17.170Z,4.20
2023-05-25T07:35:45.120Z,3.10
2023-05-25T07:38:12.872Z,3.93
2023-05-25T07:40:40.096Z,4.30
2023-05-25T07:43:08.492Z,4.03
2023-05-25T07:45:35.926Z,4.03
2023-05-25T07:48:03.392Z,4.17
2023-05-25T07:50:31.969Z,3.47
2023-05-25T07:53:00.361Z,3.83
2023-05-25T07:55:27.607Z,3.90
2023-05-25T07:57:54.872Z,3.77
2023-05-25T08:00:22.840Z,3.30
2023-05-25T08:02:50.259Z,3.63
2023-05-25T08:05:17.730Z,3.30
2023-05-25T08:07:46.326Z,3.70
2023-05-25T08:10:13.602Z,3.40
2023-05-25T08:12:48.884Z,3.30
2023-05-25T08:15:17.661Z,3.70
2023-05-25T08:17:45.174Z,3.67
2023-05-25T08:20:12.719Z,3.00
2023-05-25T08:22:40.546Z,4.23
2023-05-25T08:25:08.186Z,3.33
2023-05-25T08:27:36.560Z,3.27
2023-05-25T08:30:05.968Z,3.40
2023-05-25T08:32:33.612Z,3.07
2023-05-25T08:35:03.340Z,3.60
2023-05-25T08:37:32.209Z,3.27
2023-05-25T08:40:02.082Z,4.03
2023-05-25T08:42:29.816Z,3.87
2023-05-25T08:44:58.728Z,4.10
2023-05-25T08:47:31.237Z,3.67
2023-05-25T08:50:01.401Z,3.70
2023-05-25T08:52:33.787Z,3.40
2023-05-25T08:55:05.081Z,3.80
2023-05-25T08:57:45.902Z,3.43
2023-05-25T09:00:15.701Z,3.70
2023-05-25T09:02:52.424Z,4.13
2023-05-25T09:05:20.464Z,4.03
2023-05-25T09:07:48.451Z,4.17
2023-05-25T09:10:16.181Z,3.30
2023-05-25T09:12:43.912Z,3.53
2023-05-25T09:15:12.410Z,4.13
2023-05-25T09:17:41.279Z,3.50
2023-05-25T09:20:10.996Z,4.70
2023-05-25T09:22:38.629Z,3.50
2023-05-25T09:25:08.418Z,4.07
2023-05-25T09:27:39.023Z,4.20
2023-05-25T09:30:07.681Z,5.03
2023-05-25T09:32:36.031Z,4.10
2023-05-25T09:35:12.249Z,4.03
2023-05-25T09:37:44.109Z,4.23
2023-05-25T09:40:11.749Z,3.20
2023-05-25T09:42:39.105Z,4.00
2023-05-25T09:45:07.248Z,3.77
2023-05-25T09:47:37.266Z,3.03
2023-05-25T09:50:05.676Z,4.03
2023-05-25T09:52:33.361Z,3.53
2023-05-25T09:55:02.365Z,3.90
2023-05-25T09:57:29.998Z,3.70
2023-05-25T09:59:57.294Z,4.17
2023-05-25T10:02:24.586Z,4.10
2023-05-25T10:04:51.940Z,4.00
2023-05-25T10:07:19.855Z,3.43
2023-05-25T10:09:50.228Z,4.60
2023-05-25T10:12:21.186Z,4.10
2023-05-25T10:14:51.049Z,4.03
2023-05-25T10:17:24.042Z,3.77
2023-05-25T10:20:00.663Z,3.60
2023-05-25T10:23:00.020Z,3.10
2023-05-25T10:25:46.738Z,4.47
2023-05-25T10:28:21.710Z,4.10
2023-05-25T10:30:50.875Z,4.47
2023-05-25T10:33:19.942Z,4.63
2023-05-25T10:36:02.350Z,4.80
2023-05-25T10:38:39.118Z,4.27
2023-05-25T10:41:09.038Z,3.50
2023-05-25T10:43:37.422Z,4.60
2023-05-25T10:46:07.027Z,4.20
2023-05-25T10:48:46.579Z,3.97
2023-05-25T10:51:14.289Z,3.53
2023-05-25T10:53:46.138Z,3.67
2023-05-25T10:56:14.458Z,3.70
2023-05-25T10:58:46.460Z,4.00
2023-05-25T11:01:15.911Z,4.90
2023-05-25T11:04:11.450Z,4.90
2023-05-25T11:06:41.708Z,4.00
2023-05-25T11:09:27.473Z,4.10
2023-05-25T11:12:02.215Z,4.50
2023-05-25T11:14:31.874Z,4.47
2023-05-25T11:17:16.492Z,4.87
2023-05-25T11:19:53.287Z,4.53
2023-05-25T11:22:31.936Z,4.90
2023-05-25T11:25:00.612Z,3.93
2023-05-25T11:27:32.322Z,4.50
2023-05-25T11:30:00.128Z,4.43
2023-05-25T11:32:28.226Z,3.63
2023-05-25T11:34:58.159Z,5.47
2023-05-25T11:37:28.722Z,4.50
2023-05-25T11:39:56.322Z,5.10
2023-05-25T11:42:24.854Z,4.47
2023-05-25T11:44:52.228Z,4.33
2023-05-25T11:47:23.762Z,4.30
2023-05-25T11:49:51.276Z,4.40
2023-05-25T11:52:22.119Z,4.50
2023-05-25T11:54:49.640Z,4.30
2023-05-25T11:57:18.794Z,4.20
2023-05-25T11:59:54.614Z,5.03
2023-05-25T12:02:22.720Z,4.80
2023-05-25T12:04:58.251Z,4.30
2023-05-25T12:07:26.920Z,4.13
2023-05-25T12:10:11.925Z,4.40
2023-05-25T12:12:50.343Z,4.20
2023-05-25T12:15:21.895Z,4.03
2023-05-25T12:17:51.540Z,4.80
2023-05-25T12:20:19.070Z,4.63
2023-05-25T12:22:47.368Z,5.07
2023-05-25T12:25:19.486Z,5.13
2023-05-25T12:27:47.829Z,4.67
2023-05-25T12:30:15.493Z,5.27
2023-05-25T12:33:02.759Z,4.77
2023-05-25T12:35:47.687Z,4.80
2023-05-25T12:38:19.949Z,4.00
2023-05-25T12:40:48.039Z,4.40
2023-05-25T12:43:16.838Z,4.07
2023-05-25T12:45:44.315Z,5.90
2023-05-25T12:48:11.869Z,4.73
2023-05-25T12:50:39.376Z,4.57
2023-05-25T12:53:06.630Z,5.07
2023-05-25T12:55:35.834Z,4.43
2023-05-25T12:58:07.653Z,4.27
2023-05-25T13:00:40.014Z,4.40
2023-05-25T13:03:08.297Z,4.50
2023-05-25T13:05:37.399Z,3.77
2023-05-25T13:08:05.918Z,4.70
2023-05-25T13:10:34.676Z,4.40
2023-05-25T13:13:02.066Z,4.40
2023-05-25T13:15:29.422Z,4.43
2023-05-25T13:18:00.168Z,4.80
2023-05-25T13:20:30.563Z,4.30
2023-05-25T13:22:58.343Z,4.47
2023-05-25T13:25:27.901Z,5.40
2023-05-25T13:27:59.459Z,4.40
2023-05-25T13:30:26.955Z,4.70
2023-05-25T13:32:54.331Z,4.57
2023-05-25T13:35:41.400Z,4.47
2023-05-25T13:38:10.445Z,4.83
2023-05-25T13:40:37.703Z,5.10
2023-05-25T13:43:05.778Z,4.70
2023-05-25T13:45:33.454Z,4.93
2023-05-25T13:48:00.896Z,5.30
2023-05-25T13:50:28.403Z,5.10
2023-05-25T13:52:55.672Z,5.40
2023-05-25T13:55:23.200Z,4.87
2023-05-25T13:57:52.107Z,5.40
2023-05-25T14:00:19.546Z,5.07
2023-05-25T14:02:46.840Z,4.40
2023-05-25T14:05:14.289Z,4.57
2023-05-25T14:07:41.499Z,4.60
2023-05-25T14:10:10.002Z,4.73
2023-05-25T14:12:37.517Z,4.57
2023-05-25T14:15:06.080Z,4.80
2023-05-25T14:17:33.502Z,4.70
2023-05-25T14:20:03.907Z,5.60
2023-05-25T14:22:31.783Z,4.47
2023-05-25T14:24:58.981Z,4.33
2023-05-25T14:27:26.240Z,5.20
2023-05-25T14:29:53.451Z,4.47
2023-05-25T14:32:20.688Z,5.03
2023-05-25T14:34:47.893Z,5.73
2023-05-25T14:37:15.217Z,5.07
2023-05-25T14:39:43.043Z,4.80
2023-05-25T14:42:10.271Z,5.20
2023-05-25T14:44:37.471Z,5.17
2023-05-25T14:47:05.372Z,5.53
2023-05-25T14:49:32.683Z,4.80
2023-05-25T14:52:00.523Z,5.07
2023-05-25T14:54:27.712Z,5.80
2023-05-25T14:56:54.998Z,5.17
2023-05-25T14:59:22.237Z,4.50
2023-05-25T15:01:49.479Z,4.93
2023-05-25T15:04:17.098Z,4.07
2023-05-25T15:06:44.527Z,3.70
2023-05-25T15:09:13.241Z,5.27
2023-05-25T15:11:40.549Z,5.30
2023-05-25T15:14:07.820Z,5.13
2023-05-25T15:16:35.594Z,4.60
2023-05-25T15:19:02.937Z,4.70
2023-05-25T15:21:30.589Z,5.20
2023-05-25T15:23:57.827Z,5.43
2023-05-25T15:26:26.318Z,4.43
2023-05-25T15:28:53.513Z,5.27
2023-05-25T15:31:21.637Z,4.63
2023-05-25T15:33:57.934Z,4.33
2023-05-25T15:36:26.364Z,4.53
2023-05-25T15:38:53.641Z,4.17
2023-05-25T15:41:20.912Z,5.47
2023-05-25T15:43:56.289Z,4.90
2023-05-25T15:46:26.985Z,4.67
2023-05-25T15:48:54.597Z,4.53
2023-05-25T15:51:22.385Z,5.30
2023-05-25T15:53:50.166Z,4.27
2023-05-25T15:56:18.217Z,4.13
2023-05-25T15:58:48.783Z,4.70
2023-05-25T16:01:16.510Z,4.20
2023-05-25T16:03:44.666Z,5.63
2023-05-25T16:06:12.085Z,4.67
2023-05-25T16:08:39.365Z,4.20
2023-05-25T16:11:06.940Z,5.10
2023-05-25T16:13:34.572Z,4.57
2023-05-25T16:16:01.944Z,5.53
2023-05-25T16:18:30.079Z,4.43
2023-05-25T16:20:58.159Z,3.47
2023-05-25T16:23:25.860Z,4.60
2023-05-25T16:25:53.330Z,4.17
2023-05-25T16:28:20.686Z,4.50
2023-05-25T16:30:47.867Z,4.50
2023-05-25T16:33:15.729Z,3.80
2023-05-25T16:35:46.916Z,4.53
2023-05-25T16:38:14.304Z,4.00
2023-05-25T16:40:41.529Z,5.30
2023-05-25T16:43:08.827Z,3.93
2023-05-25T16:45:36.864Z,5.27
2023-05-25T16:48:04.336Z,4.80
2023-05-25T16:50:31.873Z,4.73
2023-05-25T16:52:59.116Z,4.70
2023-05-25T16:55:26.376Z,3.87
2023-05-25T16:57:54.184Z,4.90
2023-05-25T17:00:21.678Z,4.13
2023-05-25T17:02:49.102Z,4.63
2023-05-25T17:05:16.447Z,4.10
2023-05-25T17:07:43.681Z,5.10
2023-05-25T17:10:11.683Z,3.87
2023-05-25T17:12:38.931Z,4.27
2023-05-25T17:15:06.847Z,4.60
2023-05-25T17:17:34.146Z,4.70
2023-05-25T17:20:02.031Z,5.50
2023-05-25T17:22:29.262Z,5.13
2023-05-25T17:24:56.589Z,4.40
2023-05-25T17:27:23.781Z,4.70
2023-05-25T17:29:51.580Z,5.13
2023-05-25T17:32:19.224Z,4.97
2023-05-25T17:34:46.792Z,4.33
2023-05-25T17:37:13.986Z,4.30
2023-05-25T17:39:42.549Z,4.00
2023-05-25T17:42:10.625Z,4.50
2023-05-25T17:44:40.143Z,5.27
2023-05-25T17:47:10.047Z,4.63
2023-05-25T17:49:38.303Z,4.27
2023-05-25T17:52:07.364Z,3.77
2023-05-25T17:54:35.460Z,5.53
2023-05-25T17:57:02.990Z,4.53
2023-05-25T17:59:30.862Z,5.40
2023-05-25T18:01:58.207Z,5.00
2023-05-25T18:04:25.630Z,4.40
2023-05-25T18:06:52.867Z,3.73
2023-05-25T18:09:20.343Z,5.03
2023-05-25T18:11:48.062Z,4.70
2023-05-25T18:14:15.792Z,4.00
2023-05-25T18:16:44.707Z,4.37
2023-05-25T18:19:12.134Z,3.60
2023-05-25T18:21:40.142Z,4.57
2023-05-25T18:24:10.889Z,5.07
2023-05-25T18:26:38.160Z,4.30
2023-05-25T18:29:05.385Z,4.63
2023-05-25T18:31:33.261Z,4.77
2023-05-25T18:34:00.733Z,4.60
2023-05-25T18:36:28.595Z,4.30
2023-05-25T18:38:55.797Z,5.03
2023-05-25T18:41:24.854Z,4.70
2023-05-25T18:43:52.179Z,4.97
2023-05-25T18:46:19.782Z,7.20
2023-05-25T18:48:48.214Z,4.97
2023-05-25T18:51:16.964Z,4.60
2023-05-25T18:53:44.803Z,4.10
2023-05-25T18:56:12.068Z,4.53
2023-05-25T18:58:39.430Z,4.53
2023-05-25T19:01:06.759Z,4.50
2023-05-25T19:03:34.529Z,4.10
2023-05-25T19:06:02.070Z,4.50
2023-05-25T19:08:29.459Z,4.77
2023-05-25T19:10:57.475Z,5.20
2023-05-25T19:13:25.389Z,4.60
2023-05-25T19:15:53.764Z,5.10
2023-05-25T19:18:21.764Z,4.23
2023-05-25T19:20:49.806Z,6.30
2023-05-25T19:23:19.328Z,4.80
2023-05-25T19:25:47.379Z,4.93
2023-05-25T19:28:15.260Z,5.60
2023-05-25T19:30:42.967Z,4.70
2023-05-25T19:33:10.566Z,4.60
2023-05-25T19:35:39.271Z,4.53
2023-05-25T19:38:06.637Z,4.53
2023-05-25T19:40:34.024Z,5.23
2023-05-25T19:43:01.406Z,4.80
2023-05-25T19:45:29.134Z,5.03
2023-05-25T19:47:57.128Z,4.53
2023-05-25T19:50:30.511Z,4.67
2023-05-25T19:52:58.717Z,5.73
2023-05-25T19:55:26.657Z,4.33
2023-05-25T19:57:54.432Z,4.63
2023-05-25T20:00:26.644Z,4.43
2023-05-25T20:02:55.092Z,3.70
2023-05-25T20:05:22.717Z,5.30
2023-05-25T20:07:52.636Z,4.20
2023-05-25T20:10:20.480Z,4.07
2023-05-25T20:12:47.778Z,4.53
2023-05-25T20:15:15.790Z,4.37
2023-05-25T20:17:43.714Z,4.77
2023-05-25T20:20:11.381Z,4.03
2023-05-25T20:22:38.761Z,4.80
2023-05-25T20:25:06.563Z,4.90
2023-05-25T20:27:33.933Z,3.70
2023-05-25T20:30:01.924Z,4.77
2023-05-25T20:32:29.976Z,4.70
2023-05-25T20:34:57.726Z,4.63
2023-05-25T20:37:25.073Z,3.80
2023-05-25T20:39:53.013Z,3.80
2023-05-25T20:42:20.590Z,4.60
2023-05-25T20:44:48.028Z,5.00
2023-05-25T20:47:15.262Z,4.57
2023-05-25T20:49:43.893Z,4.30
2023-05-25T20:52:11.765Z,4.00
2023-05-25T20:54:44.500Z,4.10
2023-05-25T20:57:12.297Z,4.07
2023-05-25T20:59:40.102Z,4.90
2023-05-25T21:02:07.900Z,5.27
2023-05-25T21:04:35.696Z,4.13
2023-05-25T21:07:02.973Z,5.47
2023-05-25T21:09:30.876Z,3.70
2023-05-25T21:11:59.325Z,5.40
2023-05-25T21:14:27.056Z,4.63
2023-05-25T21:16:54.239Z,4.47
2023-05-25T21:19:21.434Z,4.73
2023-05-25T21:21:48.914Z,4.70
2023-05-25T21:24:16.224Z,5.13
2023-05-25T21:26:44.094Z,4.67
2023-05-25T21:29:11.614Z,4.50
2023-05-25T21:31:39.066Z,5.80
2023-05-25T21:34:06.800Z,5.83
2023-05-25T21:36:33.990Z,5.37
2023-05-25T21:39:01.241Z,4.70
2023-05-25T21:41:28.526Z,4.60
2023-05-25T21:43:55.816Z,5.13
2023-05-25T21:46:23.216Z,5.27
2023-05-25T21:48:50.498Z,6.27
2023-05-25T21:51:17.706Z,5.47
2023-05-25T21:53:45.430Z,5.07
2023-05-25T21:56:12.634Z,5.13
2023-05-25T21:58:40.732Z,5.47
2023-05-25T22:01:07.930Z,5.90
2023-05-25T22:03:35.236Z,4.27
2023-05-25T22:06:02.541Z,4.90
2023-05-25T22:08:29.832Z,5.13
2023-05-25T22:10:57.359Z,5.10
2023-05-25T22:13:24.535Z,5.10
2023-05-25T22:15:52.337Z,5.10
2023-05-25T22:18:20.090Z,5.47
2023-05-25T22:20:47.831Z,5.20
2023-05-25T22:23:15.239Z,5.83
2023-05-25T22:25:42.538Z,5.70
2023-05-25T22:28:09.837Z,5.30
2023-05-25T22:30:37.072Z,4.87
2023-05-25T22:33:04.360Z,6.20
2023-05-25T22:35:31.581Z,5.90
2023-05-25T22:37:58.913Z,5.77
2023-05-25T22:40:26.190Z,5.40
2023-05-25T22:42:53.435Z,6.00
2023-05-25T22:45:21.184Z,4.30
2023-05-25T22:47:48.573Z,6.20
2023-05-25T22:50:16.103Z,5.00
2023-05-25T22:52:43.532Z,5.13
2023-05-25T22:55:11.023Z,5.40
2023-05-25T22:57:39.289Z,6.53
2023-05-25T23:00:07.260Z,4.50
2023-05-25T23:02:35.016Z,5.20
2023-05-25T23:05:02.703Z,4.97
2023-05-25T23:07:29.895Z,5.50
2023-05-25T23:09:57.214Z,5.33
2023-05-25T23:12:24.470Z,5.57
2023-05-25T23:14:51.872Z,5.20
2023-05-25T23:17:21.276Z,5.83
2023-05-25T23:19:48.617Z,6.77
2023-05-25T23:22:16.001Z,4.20
2023-05-25T23:24:43.610Z,5.23
2023-05-25T23:27:11.096Z,6.23
2023-05-25T23:29:38.336Z,5.70
2023-05-25T23:32:06.177Z,4.93
2023-05-25T23:34:33.507Z,4.47
2023-05-25T23:37:01.377Z,4.03
2023-05-25T23:39:28.832Z,5.20
2023-05-25T23:41:56.468Z,5.33
2023-05-25T23:44:23.668Z,5.40
2023-05-25T23:46:51.077Z,5.37
2023-05-25T23:49:18.296Z,4.73
2023-05-25T23:51:45.574Z,5.03
2023-05-25T23:54:13.142Z,4.67
2023-05-25T23:56:40.358Z,5.47
2023-05-25T23:59:07.597Z,6.10
